PWSweather.com
Personal Weather Stations
Station Observations
KOHCLEVE171
Cleveland, OH

Cleveland, OH

Lat: 41.48646164, Lon: -81.46408081

Elevation: 1059

Station Type:

High Low Average
Temperature 39.0°F3.9°C 28.4°F-2.0°C 33.0°F0.6°C
Dew Point 28.6°F-1.9°C 23.4°F-4.8°C 25.8°F-3.4°C
Winds 4.7 mph 7.6 kmh Calm Calm 1.0 mph ESE1.6 kmh ESE
Wind Gusts 6.7 mph10.8 kmh -- 2.0 mph3.2 kmh
Humidity 83% 61% 75%
Pressure 30.51 in1033.2 mb 30.32 in1026.8 mb -
Precipitation 0.00 in0.0 mm - -
Hour Temp Dew Point Humidity Winds Wind Gusts Pressure Precip Precip Rate Daily Precip Total
12:04 AM 34.9°F1.6°C 27.1°F-2.7°C 73% 1.1 mph NNW1.8 kmh NNW 3.4 mph5.5 kmh 30.34 in1027.4 mb 0.00 in0.0 mm 0.00 in0.0 mm 0.00 in0.0 mm
12:09 AM 34.9°F1.6°C 27.1°F-2.7°C 73% 2.7 mph WNW4.3 kmh WNW 5.8 mph9.3 kmh 30.34 in1027.4 mb 0.00 in0.0 mm 0.00 in0.0 mm 0.00 in0.0 mm
12:14 AM 34.9°F1.6°C 27.1°F-2.7°C 73% 1.8 mph N2.9 kmh N 4.0 mph6.4 kmh 30.34 in1027.4 mb 0.00 in0.0 mm 0.00 in0.0 mm 0.00 in0.0 mm
12:19 AM 34.9°F1.6°C 27.1°F-2.7°C 73% 1.6 mph N2.6 kmh N 4.3 mph6.9 kmh 30.33 in1027.1 mb 0.00 in0.0 mm 0.00 in0.0 mm 0.00 in0.0 mm
12:24 AM 34.7°F1.5°C 27.0°F-2.8°C 73% 2.5 mph N4.0 kmh N 4.5 mph7.2 kmh 30.33 in1027.1 mb 0.00 in0.0 mm 0.00 in0.0 mm 0.00 in0.0 mm
12:29 AM 34.7°F1.5°C 27.0°F-2.8°C 73% 1.6 mph NW2.6 kmh NW 2.9 mph4.7 kmh 30.33 in1027.1 mb 0.00 in0.0 mm 0.00 in0.0 mm 0.00 in0.0 mm
12:34 AM 34.9°F1.6°C 26.4°F-3.1°C 71% 0.7 mph WSW1.1 kmh WSW 2.2 mph3.5 kmh 30.33 in1027.1 mb 0.00 in0.0 mm 0.00 in0.0 mm 0.00 in0.0 mm
12:39 AM 34.7°F1.5°C 26.2°F-3.2°C 71% 3.1 mph N5.0 kmh N 5.1 mph8.2 kmh 30.32 in1026.8 mb 0.00 in0.0 mm 0.00 in0.0 mm 0.00 in0.0 mm
12:44 AM 34.9°F1.6°C 26.4°F-3.1°C 71% 2.0 mph WSW3.2 kmh WSW 4.5 mph7.2 kmh 30.33 in1027.1 mb 0.00 in0.0 mm 0.00 in0.0 mm 0.00 in0.0 mm
12:49 AM 34.7°F1.5°C 27.0°F-2.8°C 73% 1.1 mph N1.8 kmh N 2.2 mph3.5 kmh 30.33 in1027.1 mb 0.00 in0.0 mm 0.00 in0.0 mm 0.00 in0.0 mm
12:54 AM 34.5°F1.4°C 26.1°F-3.3°C 71% 0.9 mph NNE1.4 kmh NNE 2.9 mph4.7 kmh 30.33 in1027.1 mb 0.00 in0.0 mm 0.00 in0.0 mm 0.00 in0.0 mm
01:04 AM 34.5°F1.4°C 26.8°F-2.9°C 73% 2.5 mph N4.0 kmh N 5.1 mph8.2 kmh 30.33 in1027.1 mb 0.00 in0.0 mm 0.00 in0.0 mm 0.00 in0.0 mm
01:09 AM 34.3°F1.3°C 26.6°F-3.0°C 73% 0.7 mph NNE1.1 kmh NNE 2.0 mph3.2 kmh 30.33 in1027.1 mb 0.00 in0.0 mm 0.00 in0.0 mm 0.00 in0.0 mm
01:14 AM 34.2°F1.2°C 26.8°F-2.9°C 74% 0.7 mph SSE1.1 kmh SSE 2.7 mph4.3 kmh 30.33 in1027.1 mb 0.00 in0.0 mm 0.00 in0.0 mm 0.00 in0.0 mm
01:19 AM 34.2°F1.2°C 26.8°F-2.9°C 74% 2.2 mph N3.5 kmh N 4.0 mph6.4 kmh 30.33 in1027.1 mb 0.00 in0.0 mm 0.00 in0.0 mm 0.00 in0.0 mm
01:24 AM 34.2°F1.2°C 26.8°F-2.9°C 74% 2.7 mph N4.3 kmh N 4.5 mph7.2 kmh 30.33 in1027.1 mb 0.00 in0.0 mm 0.00 in0.0 mm 0.00 in0.0 mm
01:29 AM 34.0°F1.1°C 26.6°F-3.0°C 74% 3.1 mph N5.0 kmh N 4.7 mph7.6 kmh 30.33 in1027.1 mb 0.00 in0.0 mm 0.00 in0.0 mm 0.00 in0.0 mm
01:34 AM 34.0°F1.1°C 26.6°F-3.0°C 74% 2.2 mph N3.5 kmh N 3.1 mph5.0 kmh 30.32 in1026.8 mb 0.00 in0.0 mm 0.00 in0.0 mm 0.00 in0.0 mm
01:39 AM 34.0°F1.1°C 26.6°F-3.0°C 74% 2.2 mph N3.5 kmh N 3.4 mph5.5 kmh 30.33 in1027.1 mb 0.00 in0.0 mm 0.00 in0.0 mm 0.00 in0.0 mm
01:44 AM 33.8°F1.0°C 26.4°F-3.1°C 74% 2.5 mph N4.0 kmh N 3.1 mph5.0 kmh 30.33 in1027.1 mb 0.00 in0.0 mm 0.00 in0.0 mm 0.00 in0.0 mm
01:49 AM 33.6°F0.9°C 26.2°F-3.2°C 74% 4.0 mph N6.4 kmh N 5.6 mph9.0 kmh 30.32 in1026.8 mb 0.00 in0.0 mm 0.00 in0.0 mm 0.00 in0.0 mm
01:54 AM 33.6°F0.9°C 26.2°F-3.2°C 74% 0.7 mph NE1.1 kmh NE 2.2 mph3.5 kmh 30.33 in1027.1 mb 0.00 in0.0 mm 0.00 in0.0 mm 0.00 in0.0 mm
01:59 AM 33.6°F0.9°C 26.2°F-3.2°C 74% 1.3 mph NE2.1 kmh NE 2.9 mph4.7 kmh 30.33 in1027.1 mb 0.00 in0.0 mm 0.00 in0.0 mm 0.00 in0.0 mm
02:04 AM 33.6°F0.9°C 26.6°F-3.0°C 75% 2.5 mph N4.0 kmh N 6.0 mph9.7 kmh 30.34 in1027.4 mb 0.00 in0.0 mm 0.00 in0.0 mm 0.00 in0.0 mm
02:09 AM 33.4°F0.8°C 26.4°F-3.1°C 75% Calm Calm -- 30.34 in1027.4 mb 0.00 in0.0 mm 0.00 in0.0 mm 0.00 in0.0 mm
02:14 AM 33.4°F0.8°C 26.4°F-3.1°C 75% 0.9 mph WNW1.4 kmh WNW 3.4 mph5.5 kmh 30.34 in1027.4 mb 0.00 in0.0 mm 0.00 in0.0 mm 0.00 in0.0 mm
02:19 AM 33.4°F0.8°C 26.4°F-3.1°C 75% 1.3 mph NNE2.1 kmh NNE 2.9 mph4.7 kmh 30.35 in1027.8 mb 0.00 in0.0 mm 0.00 in0.0 mm 0.00 in0.0 mm
02:24 AM 33.3°F0.7°C 26.2°F-3.2°C 75% 0.9 mph N1.4 kmh N 2.2 mph3.5 kmh 30.35 in1027.8 mb 0.00 in0.0 mm 0.00 in0.0 mm 0.00 in0.0 mm
02:29 AM 33.1°F0.6°C 26.1°F-3.3°C 75% 2.5 mph N4.0 kmh N 4.7 mph7.6 kmh 30.35 in1027.8 mb 0.00 in0.0 mm 0.00 in0.0 mm 0.00 in0.0 mm
02:34 AM 33.1°F0.6°C 26.1°F-3.3°C 75% 1.6 mph N2.6 kmh N 2.5 mph4.0 kmh 30.36 in1028.1 mb 0.00 in0.0 mm 0.00 in0.0 mm 0.00 in0.0 mm
02:39 AM 32.9°F0.5°C 25.9°F-3.4°C 75% 2.9 mph N4.7 kmh N 4.5 mph7.2 kmh 30.36 in1028.1 mb 0.00 in0.0 mm 0.00 in0.0 mm 0.00 in0.0 mm
02:44 AM 32.7°F0.4°C 25.7°F-3.5°C 75% 0.9 mph N1.4 kmh N 2.0 mph3.2 kmh 30.36 in1028.1 mb 0.00 in0.0 mm 0.00 in0.0 mm 0.00 in0.0 mm
02:49 AM 32.7°F0.4°C 25.7°F-3.5°C 75% 2.5 mph NNW4.0 kmh NNW 3.6 mph5.8 kmh 30.36 in1028.1 mb 0.00 in0.0 mm 0.00 in0.0 mm 0.00 in0.0 mm
02:54 AM 32.5°F0.3°C 25.5°F-3.6°C 75% 1.8 mph N2.9 kmh N 2.9 mph4.7 kmh 30.36 in1028.1 mb 0.00 in0.0 mm 0.00 in0.0 mm 0.00 in0.0 mm
02:59 AM 32.5°F0.3°C 25.9°F-3.4°C 76% 1.6 mph N2.6 kmh N 2.7 mph4.3 kmh 30.36 in1028.1 mb 0.00 in0.0 mm 0.00 in0.0 mm 0.00 in0.0 mm
03:04 AM 32.4°F0.2°C 25.7°F-3.5°C 76% 1.1 mph N1.8 kmh N 1.8 mph2.9 kmh 30.36 in1028.1 mb 0.00 in0.0 mm 0.00 in0.0 mm 0.00 in0.0 mm
03:09 AM 32.5°F0.3°C 25.5°F-3.6°C 75% 1.3 mph N2.1 kmh N 2.2 mph3.5 kmh 30.36 in1028.1 mb 0.00 in0.0 mm 0.00 in0.0 mm 0.00 in0.0 mm
03:14 AM 32.4°F0.2°C 25.3°F-3.7°C 75% 2.0 mph NNW3.2 kmh NNW 3.1 mph5.0 kmh 30.36 in1028.1 mb 0.00 in0.0 mm 0.00 in0.0 mm 0.00 in0.0 mm
03:19 AM 32.4°F0.2°C 25.7°F-3.5°C 76% 0.4 mph SW0.6 kmh SW 1.3 mph2.1 kmh 30.35 in1027.8 mb 0.00 in0.0 mm 0.00 in0.0 mm 0.00 in0.0 mm
03:24 AM 32.4°F0.2°C 25.7°F-3.5°C 76% Calm Calm 1.1 mph1.8 kmh 30.36 in1028.1 mb 0.00 in0.0 mm 0.00 in0.0 mm 0.00 in0.0 mm
03:29 AM 32.4°F0.2°C 25.7°F-3.5°C 76% 0.2 mph NNW0.3 kmh NNW 1.1 mph1.8 kmh 30.36 in1028.1 mb 0.00 in0.0 mm 0.00 in0.0 mm 0.00 in0.0 mm
03:34 AM 32.0°F0.0°C 25.3°F-3.7°C 76% 1.1 mph N1.8 kmh N 1.6 mph2.6 kmh 30.36 in1028.1 mb 0.00 in0.0 mm 0.00 in0.0 mm 0.00 in0.0 mm
03:39 AM 31.8°F-0.1°C 25.5°F-3.6°C 77% 0.9 mph N1.4 kmh N 1.6 mph2.6 kmh 30.37 in1028.4 mb 0.00 in0.0 mm 0.00 in0.0 mm 0.00 in0.0 mm
03:44 AM 31.8°F-0.1°C 25.5°F-3.6°C 77% 1.1 mph N1.8 kmh N 1.6 mph2.6 kmh 30.37 in1028.4 mb 0.00 in0.0 mm 0.00 in0.0 mm 0.00 in0.0 mm
03:49 AM 31.6°F-0.2°C 25.3°F-3.7°C 77% 1.8 mph N2.9 kmh N 2.7 mph4.3 kmh 30.37 in1028.4 mb 0.00 in0.0 mm 0.00 in0.0 mm 0.00 in0.0 mm
03:54 AM 31.6°F-0.2°C 25.5°F-3.6°C 78% 1.6 mph N2.6 kmh N 2.2 mph3.5 kmh 30.38 in1028.8 mb 0.00 in0.0 mm 0.00 in0.0 mm 0.00 in0.0 mm
03:59 AM 31.5°F-0.3°C 25.3°F-3.7°C 78% 2.0 mph N3.2 kmh N 3.1 mph5.0 kmh 30.38 in1028.8 mb 0.00 in0.0 mm 0.00 in0.0 mm 0.00 in0.0 mm
04:04 AM 31.3°F-0.4°C 25.5°F-3.6°C 79% 1.6 mph N2.6 kmh N 2.9 mph4.7 kmh 30.37 in1028.4 mb 0.00 in0.0 mm 0.00 in0.0 mm 0.00 in0.0 mm
04:09 AM 31.3°F-0.4°C 25.5°F-3.6°C 79% 1.8 mph N2.9 kmh N 2.2 mph3.5 kmh 30.38 in1028.8 mb 0.00 in0.0 mm 0.00 in0.0 mm 0.00 in0.0 mm
04:14 AM 31.1°F-0.5°C 25.7°F-3.5°C 80% 1.3 mph N2.1 kmh N 1.8 mph2.9 kmh 30.38 in1028.8 mb 0.00 in0.0 mm 0.00 in0.0 mm 0.00 in0.0 mm
04:19 AM 31.1°F-0.5°C 25.7°F-3.5°C 80% 1.6 mph N2.6 kmh N 2.2 mph3.5 kmh 30.38 in1028.8 mb 0.00 in0.0 mm 0.00 in0.0 mm 0.00 in0.0 mm
04:24 AM 30.9°F-0.6°C 26.1°F-3.3°C 82% 1.8 mph N2.9 kmh N 3.1 mph5.0 kmh 30.38 in1028.8 mb 0.00 in0.0 mm 0.00 in0.0 mm 0.00 in0.0 mm
04:29 AM 30.7°F-0.7°C 25.9°F-3.4°C 82% 1.6 mph 2.6 kmh 2.7 mph4.3 kmh 30.38 in1028.8 mb 0.00 in0.0 mm 0.00 in0.0 mm 0.00 in0.0 mm
04:34 AM 30.7°F-0.7°C 25.9°F-3.4°C 82% 2.0 mph N3.2 kmh N 2.7 mph4.3 kmh 30.38 in1028.8 mb 0.00 in0.0 mm 0.00 in0.0 mm 0.00 in0.0 mm
04:39 AM 30.6°F-0.8°C 26.1°F-3.3°C 83% 0.9 mph NNE1.4 kmh NNE 1.6 mph2.6 kmh 30.38 in1028.8 mb 0.00 in0.0 mm 0.00 in0.0 mm 0.00 in0.0 mm
04:44 AM 30.7°F-0.7°C 26.2°F-3.2°C 83% 0.4 mph NNE0.6 kmh NNE 1.6 mph2.6 kmh 30.39 in1029.1 mb 0.00 in0.0 mm 0.00 in0.0 mm 0.00 in0.0 mm
04:49 AM 30.7°F-0.7°C 26.2°F-3.2°C 83% 0.7 mph NE1.1 kmh NE 1.3 mph2.1 kmh 30.38 in1028.8 mb 0.00 in0.0 mm 0.00 in0.0 mm 0.00 in0.0 mm
04:54 AM 30.4°F-0.9°C 25.9°F-3.4°C 83% Calm Calm -- 30.38 in1028.8 mb 0.00 in0.0 mm 0.00 in0.0 mm 0.00 in0.0 mm
04:59 AM 30.6°F-0.8°C 26.1°F-3.3°C 83% Calm Calm -- 30.38 in1028.8 mb 0.00 in0.0 mm 0.00 in0.0 mm 0.00 in0.0 mm
05:04 AM 30.4°F-0.9°C 25.9°F-3.4°C 83% 0.7 mph NE1.1 kmh NE 1.6 mph2.6 kmh 30.38 in1028.8 mb 0.00 in0.0 mm 0.00 in0.0 mm 0.00 in0.0 mm
05:09 AM 30.2°F-1.0°C 25.7°F-3.5°C 83% 0.7 mph N1.1 kmh N 1.3 mph2.1 kmh 30.39 in1029.1 mb 0.00 in0.0 mm 0.00 in0.0 mm 0.00 in0.0 mm
05:14 AM 30.4°F-0.9°C 25.9°F-3.4°C 83% Calm Calm -- 30.39 in1029.1 mb 0.00 in0.0 mm 0.00 in0.0 mm 0.00 in0.0 mm
05:19 AM 30.4°F-0.9°C 25.5°F-3.6°C 82% 0.7 mph ESE1.1 kmh ESE 1.3 mph2.1 kmh 30.39 in1029.1 mb 0.00 in0.0 mm 0.00 in0.0 mm 0.00 in0.0 mm
05:24 AM 30.4°F-0.9°C 25.5°F-3.6°C 82% Calm Calm -- 30.39 in1029.1 mb 0.00 in0.0 mm 0.00 in0.0 mm 0.00 in0.0 mm
05:29 AM 30.4°F-0.9°C 25.5°F-3.6°C 82% 0.7 mph SSE1.1 kmh SSE 1.1 mph1.8 kmh 30.40 in1029.5 mb 0.00 in0.0 mm 0.00 in0.0 mm 0.00 in0.0 mm
05:34 AM 30.4°F-0.9°C 25.5°F-3.6°C 82% 0.4 mph SE0.6 kmh SE 1.1 mph1.8 kmh 30.40 in1029.5 mb 0.00 in0.0 mm 0.00 in0.0 mm 0.00 in0.0 mm
05:39 AM 30.4°F-0.9°C 25.5°F-3.6°C 82% Calm Calm -- 30.40 in1029.5 mb 0.00 in0.0 mm 0.00 in0.0 mm 0.00 in0.0 mm
05:44 AM 30.4°F-0.9°C 25.5°F-3.6°C 82% 0.4 mph NE0.6 kmh NE 1.1 mph1.8 kmh 30.40 in1029.5 mb 0.00 in0.0 mm 0.00 in0.0 mm 0.00 in0.0 mm
05:49 AM 29.8°F-1.2°C 25.3°F-3.7°C 83% 0.7 mph NE1.1 kmh NE 1.1 mph1.8 kmh 30.40 in1029.5 mb 0.00 in0.0 mm 0.00 in0.0 mm 0.00 in0.0 mm
05:54 AM 29.7°F-1.3°C 24.8°F-4.0°C 82% 0.9 mph N1.4 kmh N 1.1 mph1.8 kmh 30.41 in1029.8 mb 0.00 in0.0 mm 0.00 in0.0 mm 0.00 in0.0 mm
05:59 AM 29.5°F-1.4°C 24.6°F-4.1°C 82% Calm Calm -- 30.41 in1029.8 mb 0.00 in0.0 mm 0.00 in0.0 mm 0.00 in0.0 mm
06:04 AM 29.3°F-1.5°C 24.4°F-4.2°C 82% 0.9 mph NNE1.4 kmh NNE 1.1 mph1.8 kmh 30.41 in1029.8 mb 0.00 in0.0 mm 0.00 in0.0 mm 0.00 in0.0 mm
06:09 AM 29.3°F-1.5°C 24.4°F-4.2°C 82% 0.9 mph NE1.4 kmh NE 1.6 mph2.6 kmh 30.41 in1029.8 mb 0.00 in0.0 mm 0.00 in0.0 mm 0.00 in0.0 mm
06:14 AM 29.3°F-1.5°C 24.4°F-4.2°C 82% 0.9 mph NE1.4 kmh NE 1.6 mph2.6 kmh 30.41 in1029.8 mb 0.00 in0.0 mm 0.00 in0.0 mm 0.00 in0.0 mm
06:19 AM 29.5°F-1.4°C 24.1°F-4.4°C 80% 1.6 mph NE2.6 kmh NE 2.5 mph4.0 kmh 30.41 in1029.8 mb 0.00 in0.0 mm 0.00 in0.0 mm 0.00 in0.0 mm
06:24 AM 29.5°F-1.4°C 23.7°F-4.6°C 79% 0.9 mph NE1.4 kmh NE 1.8 mph2.9 kmh 30.42 in1030.1 mb 0.00 in0.0 mm 0.00 in0.0 mm 0.00 in0.0 mm
06:29 AM 29.3°F-1.5°C 23.9°F-4.5°C 80% 2.0 mph NE3.2 kmh NE 2.9 mph4.7 kmh 30.42 in1030.1 mb 0.00 in0.0 mm 0.00 in0.0 mm 0.00 in0.0 mm
06:34 AM 29.3°F-1.5°C 23.9°F-4.5°C 80% 1.6 mph N2.6 kmh N 2.5 mph4.0 kmh 30.42 in1030.1 mb 0.00 in0.0 mm 0.00 in0.0 mm 0.00 in0.0 mm
06:39 AM 29.5°F-1.4°C 23.7°F-4.6°C 79% 2.0 mph NE3.2 kmh NE 3.1 mph5.0 kmh 30.42 in1030.1 mb 0.00 in0.0 mm 0.00 in0.0 mm 0.00 in0.0 mm
06:44 AM 29.3°F-1.5°C 23.5°F-4.7°C 79% 1.3 mph NE2.1 kmh NE 1.8 mph2.9 kmh 30.42 in1030.1 mb 0.00 in0.0 mm 0.00 in0.0 mm 0.00 in0.0 mm
06:49 AM 29.3°F-1.5°C 23.5°F-4.7°C 79% 0.9 mph NE1.4 kmh NE 1.3 mph2.1 kmh 30.42 in1030.1 mb 0.00 in0.0 mm 0.00 in0.0 mm 0.00 in0.0 mm
06:54 AM 29.3°F-1.5°C 23.5°F-4.7°C 79% 1.1 mph NE1.8 kmh NE 1.6 mph2.6 kmh 30.42 in1030.1 mb 0.00 in0.0 mm 0.00 in0.0 mm 0.00 in0.0 mm
06:59 AM 29.3°F-1.5°C 23.5°F-4.7°C 79% Calm Calm -- 30.43 in1030.5 mb 0.00 in0.0 mm 0.00 in0.0 mm 0.00 in0.0 mm
07:04 AM 29.1°F-1.6°C 23.4°F-4.8°C 79% 0.9 mph NE1.4 kmh NE 1.8 mph2.9 kmh 30.43 in1030.5 mb 0.00 in0.0 mm 0.00 in0.0 mm 0.00 in0.0 mm
07:09 AM 29.1°F-1.6°C 23.4°F-4.8°C 79% 1.6 mph NE2.6 kmh NE 2.2 mph3.5 kmh 30.43 in1030.5 mb 0.00 in0.0 mm 0.00 in0.0 mm 0.00 in0.0 mm
07:14 AM 28.9°F-1.7°C 23.5°F-4.7°C 80% 1.3 mph NNE2.1 kmh NNE 2.2 mph3.5 kmh 30.43 in1030.5 mb 0.00 in0.0 mm 0.00 in0.0 mm 0.00 in0.0 mm
07:19 AM 28.9°F-1.7°C 23.5°F-4.7°C 80% 1.3 mph NNE2.1 kmh NNE 2.2 mph3.5 kmh 30.43 in1030.5 mb 0.00 in0.0 mm 0.00 in0.0 mm 0.00 in0.0 mm
07:24 AM 29.1°F-1.6°C 23.7°F-4.6°C 80% 0.4 mph NE0.6 kmh NE 1.8 mph2.9 kmh 30.43 in1030.5 mb 0.00 in0.0 mm 0.00 in0.0 mm 0.00 in0.0 mm
07:29 AM 28.8°F-1.8°C 23.4°F-4.8°C 80% 1.6 mph NE2.6 kmh NE 2.5 mph4.0 kmh 30.43 in1030.5 mb 0.00 in0.0 mm 0.00 in0.0 mm 0.00 in0.0 mm
07:34 AM 28.8°F-1.8°C 23.4°F-4.8°C 80% 0.9 mph NE1.4 kmh NE 1.8 mph2.9 kmh 30.42 in1030.1 mb 0.00 in0.0 mm 0.00 in0.0 mm 0.00 in0.0 mm
07:39 AM 28.8°F-1.8°C 23.4°F-4.8°C 80% 1.1 mph NE1.8 kmh NE 1.6 mph2.6 kmh 30.43 in1030.5 mb 0.00 in0.0 mm 0.00 in0.0 mm 0.00 in0.0 mm
07:44 AM 28.8°F-1.8°C 23.4°F-4.8°C 80% 1.6 mph NE2.6 kmh NE 3.1 mph5.0 kmh 30.44 in1030.8 mb 0.00 in0.0 mm 0.00 in0.0 mm 0.00 in0.0 mm
07:49 AM 28.8°F-1.8°C 23.9°F-4.5°C 82% 1.3 mph NE2.1 kmh NE 2.5 mph4.0 kmh 30.43 in1030.5 mb 0.00 in0.0 mm 0.00 in0.0 mm 0.00 in0.0 mm
07:54 AM 28.8°F-1.8°C 23.9°F-4.5°C 82% 1.6 mph NNE2.6 kmh NNE 2.2 mph3.5 kmh 30.43 in1030.5 mb 0.00 in0.0 mm 0.00 in0.0 mm 0.00 in0.0 mm
07:59 AM 28.6°F-1.9°C 23.7°F-4.6°C 82% 1.6 mph NE2.6 kmh NE 2.7 mph4.3 kmh 30.43 in1030.5 mb 0.00 in0.0 mm 0.00 in0.0 mm 0.00 in0.0 mm
08:04 AM 28.6°F-1.9°C 24.1°F-4.4°C 83% 1.3 mph NE2.1 kmh NE 2.0 mph3.2 kmh 30.45 in1031.2 mb 0.00 in0.0 mm 0.00 in0.0 mm 0.00 in0.0 mm
08:09 AM 28.4°F-2.0°C 23.9°F-4.5°C 83% 1.8 mph NNE2.9 kmh NNE 2.2 mph3.5 kmh 30.45 in1031.2 mb 0.00 in0.0 mm 0.00 in0.0 mm 0.00 in0.0 mm
08:14 AM 28.4°F-2.0°C 23.9°F-4.5°C 83% 0.9 mph NNE1.4 kmh NNE 1.3 mph2.1 kmh 30.46 in1031.5 mb 0.00 in0.0 mm 0.00 in0.0 mm 0.00 in0.0 mm
08:19 AM 28.4°F-2.0°C 23.9°F-4.5°C 83% 1.3 mph N2.1 kmh N 2.2 mph3.5 kmh 30.45 in1031.2 mb 0.00 in0.0 mm 0.00 in0.0 mm 0.00 in0.0 mm
08:24 AM 28.4°F-2.0°C 23.9°F-4.5°C 83% 1.6 mph NE2.6 kmh NE 2.5 mph4.0 kmh 30.45 in1031.2 mb 0.00 in0.0 mm 0.00 in0.0 mm 0.00 in0.0 mm
08:29 AM 28.6°F-1.9°C 24.1°F-4.4°C 83% 0.9 mph NNE1.4 kmh NNE 1.3 mph2.1 kmh 30.46 in1031.5 mb 0.00 in0.0 mm 0.00 in0.0 mm 0.00 in0.0 mm
08:34 AM 28.6°F-1.9°C 24.1°F-4.4°C 83% 1.3 mph NNE2.1 kmh NNE 2.0 mph3.2 kmh 30.46 in1031.5 mb 0.00 in0.0 mm 0.00 in0.0 mm 0.00 in0.0 mm
08:39 AM 28.8°F-1.8°C 24.3°F-4.3°C 83% 0.7 mph ENE1.1 kmh ENE 1.3 mph2.1 kmh 30.46 in1031.5 mb 0.00 in0.0 mm 0.00 in0.0 mm 0.00 in0.0 mm
08:44 AM 28.9°F-1.7°C 24.4°F-4.2°C 83% 1.1 mph E1.8 kmh E 1.8 mph2.9 kmh 30.47 in1031.8 mb 0.00 in0.0 mm 0.00 in0.0 mm 0.00 in0.0 mm
08:49 AM 28.9°F-1.7°C 24.1°F-4.4°C 82% 1.3 mph NE2.1 kmh NE 2.2 mph3.5 kmh 30.46 in1031.5 mb 0.00 in0.0 mm 0.00 in0.0 mm 0.00 in0.0 mm
08:54 AM 29.1°F-1.6°C 24.3°F-4.3°C 82% 1.3 mph NNE2.1 kmh NNE 2.2 mph3.5 kmh 30.47 in1031.8 mb 0.00 in0.0 mm 0.00 in0.0 mm 0.00 in0.0 mm
08:59 AM 28.9°F-1.7°C 24.1°F-4.4°C 82% 0.2 mph ENE0.3 kmh ENE 0.9 mph1.4 kmh 30.47 in1031.8 mb 0.00 in0.0 mm 0.00 in0.0 mm 0.00 in0.0 mm
09:04 AM 28.8°F-1.8°C 23.9°F-4.5°C 82% 0.9 mph E1.4 kmh E 1.3 mph2.1 kmh 30.48 in1032.2 mb 0.00 in0.0 mm 0.00 in0.0 mm 0.00 in0.0 mm
09:09 AM 28.8°F-1.8°C 23.9°F-4.5°C 82% 0.9 mph NE1.4 kmh NE 1.3 mph2.1 kmh 30.48 in1032.2 mb 0.00 in0.0 mm 0.00 in0.0 mm 0.00 in0.0 mm
09:14 AM 29.1°F-1.6°C 24.3°F-4.3°C 82% 1.6 mph ENE2.6 kmh ENE 2.2 mph3.5 kmh 30.48 in1032.2 mb 0.00 in0.0 mm 0.00 in0.0 mm 0.00 in0.0 mm
09:19 AM 29.1°F-1.6°C 24.3°F-4.3°C 82% 1.1 mph NE1.8 kmh NE 2.2 mph3.5 kmh 30.48 in1032.2 mb 0.00 in0.0 mm 0.00 in0.0 mm 0.00 in0.0 mm
09:24 AM 29.1°F-1.6°C 24.3°F-4.3°C 82% 0.9 mph N1.4 kmh N 1.6 mph2.6 kmh 30.48 in1032.2 mb 0.00 in0.0 mm 0.00 in0.0 mm 0.00 in0.0 mm
09:29 AM 29.7°F-1.3°C 24.3°F-4.3°C 80% 1.1 mph ENE1.8 kmh ENE 1.3 mph2.1 kmh 30.48 in1032.2 mb 0.00 in0.0 mm 0.00 in0.0 mm 0.00 in0.0 mm
09:34 AM 29.8°F-1.2°C 24.4°F-4.2°C 80% 0.7 mph NNE1.1 kmh NNE 1.3 mph2.1 kmh 30.48 in1032.2 mb 0.00 in0.0 mm 0.00 in0.0 mm 0.00 in0.0 mm
09:39 AM 29.8°F-1.2°C 24.1°F-4.4°C 79% 1.3 mph NNE2.1 kmh NNE 2.2 mph3.5 kmh 30.48 in1032.2 mb 0.00 in0.0 mm 0.00 in0.0 mm 0.00 in0.0 mm
09:44 AM 29.8°F-1.2°C 24.1°F-4.4°C 79% 1.6 mph NE2.6 kmh NE 2.7 mph4.3 kmh 30.48 in1032.2 mb 0.00 in0.0 mm 0.00 in0.0 mm 0.00 in0.0 mm
09:49 AM 29.8°F-1.2°C 24.1°F-4.4°C 79% 2.0 mph NE3.2 kmh NE 2.5 mph4.0 kmh 30.48 in1032.2 mb 0.00 in0.0 mm 0.00 in0.0 mm 0.00 in0.0 mm
09:54 AM 30.0°F-1.1°C 24.3°F-4.3°C 79% 1.6 mph ENE2.6 kmh ENE 2.9 mph4.7 kmh 30.48 in1032.2 mb 0.00 in0.0 mm 0.00 in0.0 mm 0.00 in0.0 mm
09:59 AM 30.0°F-1.1°C 24.1°F-4.4°C 78% 2.0 mph NE3.2 kmh NE 2.9 mph4.7 kmh 30.49 in1032.5 mb 0.00 in0.0 mm 0.00 in0.0 mm 0.00 in0.0 mm
10:04 AM 30.0°F-1.1°C 24.3°F-4.3°C 79% 1.3 mph NE2.1 kmh NE 2.5 mph4.0 kmh 30.49 in1032.5 mb 0.00 in0.0 mm 0.00 in0.0 mm 0.00 in0.0 mm
10:09 AM 29.8°F-1.2°C 24.1°F-4.4°C 79% 1.6 mph NNE2.6 kmh NNE 2.0 mph3.2 kmh 30.50 in1032.8 mb 0.00 in0.0 mm 0.00 in0.0 mm 0.00 in0.0 mm
10:14 AM 29.8°F-1.2°C 24.1°F-4.4°C 79% 1.3 mph NNE2.1 kmh NNE 2.0 mph3.2 kmh 30.50 in1032.8 mb 0.00 in0.0 mm 0.00 in0.0 mm 0.00 in0.0 mm
10:19 AM 30.0°F-1.1°C 24.3°F-4.3°C 79% 0.4 mph NE0.6 kmh NE 2.2 mph3.5 kmh 30.50 in1032.8 mb 0.00 in0.0 mm 0.00 in0.0 mm 0.00 in0.0 mm
10:24 AM 30.4°F-0.9°C 24.6°F-4.1°C 79% 1.6 mph NE2.6 kmh NE 2.0 mph3.2 kmh 30.50 in1032.8 mb 0.00 in0.0 mm 0.00 in0.0 mm 0.00 in0.0 mm
10:29 AM 30.6°F-0.8°C 24.8°F-4.0°C 79% 2.0 mph ESE3.2 kmh ESE 2.9 mph4.7 kmh 30.50 in1032.8 mb 0.00 in0.0 mm 0.00 in0.0 mm 0.00 in0.0 mm
10:34 AM 30.9°F-0.6°C 25.2°F-3.8°C 79% 1.6 mph NE2.6 kmh NE 2.7 mph4.3 kmh 30.49 in1032.5 mb 0.00 in0.0 mm 0.00 in0.0 mm 0.00 in0.0 mm
10:39 AM 31.1°F-0.5°C 25.0°F-3.9°C 78% 0.9 mph ENE1.4 kmh ENE 1.3 mph2.1 kmh 30.50 in1032.8 mb 0.00 in0.0 mm 0.00 in0.0 mm 0.00 in0.0 mm
10:44 AM 31.1°F-0.5°C 25.0°F-3.9°C 78% 0.9 mph N1.4 kmh N 1.6 mph2.6 kmh 30.50 in1032.8 mb 0.00 in0.0 mm 0.00 in0.0 mm 0.00 in0.0 mm
10:49 AM 30.9°F-0.6°C 24.8°F-4.0°C 78% 1.8 mph NNE2.9 kmh NNE 2.9 mph4.7 kmh 30.50 in1032.8 mb 0.00 in0.0 mm 0.00 in0.0 mm 0.00 in0.0 mm
10:54 AM 30.7°F-0.7°C 24.6°F-4.1°C 78% 1.1 mph N1.8 kmh N 2.2 mph3.5 kmh 30.50 in1032.8 mb 0.00 in0.0 mm 0.00 in0.0 mm 0.00 in0.0 mm
10:59 AM 30.9°F-0.6°C 24.8°F-4.0°C 78% 1.1 mph S1.8 kmh S 2.0 mph3.2 kmh 30.50 in1032.8 mb 0.00 in0.0 mm 0.00 in0.0 mm 0.00 in0.0 mm
11:04 AM 31.1°F-0.5°C 25.0°F-3.9°C 78% 0.2 mph N0.3 kmh N 2.0 mph3.2 kmh 30.51 in1033.2 mb 0.00 in0.0 mm 0.00 in0.0 mm 0.00 in0.0 mm
11:09 AM 31.3°F-0.4°C 25.2°F-3.8°C 78% 2.7 mph SE4.3 kmh SE 3.4 mph5.5 kmh 30.51 in1033.2 mb 0.00 in0.0 mm 0.00 in0.0 mm 0.00 in0.0 mm
11:14 AM 31.6°F-0.2°C 25.3°F-3.7°C 77% 1.3 mph S2.1 kmh S 2.0 mph3.2 kmh 30.50 in1032.8 mb 0.00 in0.0 mm 0.00 in0.0 mm 0.00 in0.0 mm
11:19 AM 32.0°F0.0°C 25.5°F-3.6°C 77% 0.9 mph SE1.4 kmh SE 1.8 mph2.9 kmh 30.50 in1032.8 mb 0.00 in0.0 mm 0.00 in0.0 mm 0.00 in0.0 mm
11:24 AM 31.8°F-0.1°C 25.5°F-3.6°C 77% 0.9 mph N1.4 kmh N 1.6 mph2.6 kmh 30.51 in1033.2 mb 0.00 in0.0 mm 0.00 in0.0 mm 0.00 in0.0 mm
11:29 AM 31.8°F-0.1°C 25.5°F-3.6°C 77% 1.8 mph S2.9 kmh S 2.5 mph4.0 kmh 30.50 in1032.8 mb 0.00 in0.0 mm 0.00 in0.0 mm 0.00 in0.0 mm
11:34 AM 32.0°F0.0°C 25.3°F-3.7°C 76% 2.0 mph SE3.2 kmh SE 2.5 mph4.0 kmh 30.50 in1032.8 mb 0.00 in0.0 mm 0.00 in0.0 mm 0.00 in0.0 mm
11:39 AM 32.4°F0.2°C 25.7°F-3.5°C 76% 0.7 mph NNE1.1 kmh NNE 2.0 mph3.2 kmh 30.50 in1032.8 mb 0.00 in0.0 mm 0.00 in0.0 mm 0.00 in0.0 mm
11:44 AM 32.4°F0.2°C 25.7°F-3.5°C 76% 2.5 mph SSE4.0 kmh SSE 3.1 mph5.0 kmh 30.49 in1032.5 mb 0.00 in0.0 mm 0.00 in0.0 mm 0.00 in0.0 mm
11:49 AM 32.5°F0.3°C 25.9°F-3.4°C 76% 2.7 mph S4.3 kmh S 3.6 mph5.8 kmh 30.49 in1032.5 mb 0.00 in0.0 mm 0.00 in0.0 mm 0.00 in0.0 mm
11:54 AM 32.7°F0.4°C 26.1°F-3.3°C 76% 0.4 mph N0.6 kmh N 1.6 mph2.6 kmh 30.49 in1032.5 mb 0.00 in0.0 mm 0.00 in0.0 mm 0.00 in0.0 mm
11:59 AM 32.9°F0.5°C 26.2°F-3.2°C 76% 1.6 mph SE2.6 kmh SE 2.5 mph4.0 kmh 30.49 in1032.5 mb 0.00 in0.0 mm 0.00 in0.0 mm 0.00 in0.0 mm
12:04 PM 33.3°F0.7°C 26.2°F-3.2°C 75% 1.6 mph W2.6 kmh W 2.7 mph4.3 kmh 30.49 in1032.5 mb 0.00 in0.0 mm 0.00 in0.0 mm 0.00 in0.0 mm
12:09 PM 33.3°F0.7°C 25.9°F-3.4°C 74% 3.4 mph E5.5 kmh E 5.6 mph9.0 kmh 30.50 in1032.8 mb 0.00 in0.0 mm 0.00 in0.0 mm 0.00 in0.0 mm
12:14 PM 33.4°F0.8°C 26.1°F-3.3°C 74% Calm Calm 1.1 mph1.8 kmh 30.50 in1032.8 mb 0.00 in0.0 mm 0.00 in0.0 mm 0.00 in0.0 mm
12:19 PM 33.6°F0.9°C 26.2°F-3.2°C 74% 2.5 mph W4.0 kmh W 3.6 mph5.8 kmh 30.50 in1032.8 mb 0.00 in0.0 mm 0.00 in0.0 mm 0.00 in0.0 mm
12:24 PM 33.6°F0.9°C 26.2°F-3.2°C 74% 1.1 mph NE1.8 kmh NE 2.5 mph4.0 kmh 30.50 in1032.8 mb 0.00 in0.0 mm 0.00 in0.0 mm 0.00 in0.0 mm
12:29 PM 34.0°F1.1°C 26.2°F-3.2°C 73% 2.2 mph NE3.5 kmh NE 3.8 mph6.1 kmh 30.50 in1032.8 mb 0.00 in0.0 mm 0.00 in0.0 mm 0.00 in0.0 mm
12:34 PM 34.0°F1.1°C 25.5°F-3.6°C 71% 1.6 mph NNE2.6 kmh NNE 2.9 mph4.7 kmh 30.50 in1032.8 mb 0.00 in0.0 mm 0.00 in0.0 mm 0.00 in0.0 mm
12:39 PM 34.3°F1.3°C 25.9°F-3.4°C 71% 2.5 mph NNE4.0 kmh NNE 4.3 mph6.9 kmh 30.51 in1033.2 mb 0.00 in0.0 mm 0.00 in0.0 mm 0.00 in0.0 mm
12:44 PM 34.3°F1.3°C 25.9°F-3.4°C 71% 0.7 mph N1.1 kmh N 2.7 mph4.3 kmh 30.50 in1032.8 mb 0.00 in0.0 mm 0.00 in0.0 mm 0.00 in0.0 mm
12:49 PM 34.5°F1.4°C 26.1°F-3.3°C 71% 1.1 mph SSW1.8 kmh SSW 3.8 mph6.1 kmh 30.50 in1032.8 mb 0.00 in0.0 mm 0.00 in0.0 mm 0.00 in0.0 mm
12:54 PM 34.7°F1.5°C 25.9°F-3.4°C 70% 1.6 mph N2.6 kmh N 2.5 mph4.0 kmh 30.50 in1032.8 mb 0.00 in0.0 mm 0.00 in0.0 mm 0.00 in0.0 mm
12:59 PM 34.9°F1.6°C 25.7°F-3.5°C 69% 2.5 mph S4.0 kmh S 3.8 mph6.1 kmh 30.50 in1032.8 mb 0.00 in0.0 mm 0.00 in0.0 mm 0.00 in0.0 mm
01:04 PM 34.9°F1.6°C 25.7°F-3.5°C 69% 2.2 mph S3.5 kmh S 2.9 mph4.7 kmh 30.50 in1032.8 mb 0.00 in0.0 mm 0.00 in0.0 mm 0.00 in0.0 mm
01:09 PM 35.1°F1.7°C 25.9°F-3.4°C 69% 2.2 mph E3.5 kmh E 3.6 mph5.8 kmh 30.50 in1032.8 mb 0.00 in0.0 mm 0.00 in0.0 mm 0.00 in0.0 mm
01:14 PM 35.2°F1.8°C 25.7°F-3.5°C 68% 1.6 mph S2.6 kmh S 2.9 mph4.7 kmh 30.50 in1032.8 mb 0.00 in0.0 mm 0.00 in0.0 mm 0.00 in0.0 mm
01:19 PM 35.4°F1.9°C 26.2°F-3.2°C 69% 3.6 mph S5.8 kmh S 6.7 mph10.8 kmh 30.50 in1032.8 mb 0.00 in0.0 mm 0.00 in0.0 mm 0.00 in0.0 mm
01:24 PM 35.6°F2.0°C 26.1°F-3.3°C 68% 2.2 mph SSE3.5 kmh SSE 2.9 mph4.7 kmh 30.50 in1032.8 mb 0.00 in0.0 mm 0.00 in0.0 mm 0.00 in0.0 mm
01:29 PM 35.6°F2.0°C 26.1°F-3.3°C 68% 2.7 mph SSW4.3 kmh SSW 4.7 mph7.6 kmh 30.49 in1032.5 mb 0.00 in0.0 mm 0.00 in0.0 mm 0.00 in0.0 mm
01:34 PM 35.8°F2.1°C 25.9°F-3.4°C 67% 0.7 mph NNE1.1 kmh NNE 1.8 mph2.9 kmh 30.49 in1032.5 mb 0.00 in0.0 mm 0.00 in0.0 mm 0.00 in0.0 mm
01:39 PM 35.8°F2.1°C 25.9°F-3.4°C 67% 2.9 mph NNE4.7 kmh NNE 4.5 mph7.2 kmh 30.49 in1032.5 mb 0.00 in0.0 mm 0.00 in0.0 mm 0.00 in0.0 mm
01:44 PM 36.0°F2.2°C 26.1°F-3.3°C 67% 3.1 mph NNE5.0 kmh NNE 4.3 mph6.9 kmh 30.49 in1032.5 mb 0.00 in0.0 mm 0.00 in0.0 mm 0.00 in0.0 mm
01:49 PM 36.1°F2.3°C 26.2°F-3.2°C 67% 1.6 mph WNW2.6 kmh WNW 2.9 mph4.7 kmh 30.49 in1032.5 mb 0.00 in0.0 mm 0.00 in0.0 mm 0.00 in0.0 mm
01:54 PM 36.3°F2.4°C 26.1°F-3.3°C 66% 1.8 mph NNW2.9 kmh NNW 3.1 mph5.0 kmh 30.49 in1032.5 mb 0.00 in0.0 mm 0.00 in0.0 mm 0.00 in0.0 mm
01:59 PM 36.5°F2.5°C 26.2°F-3.2°C 66% 0.2 mph ENE0.3 kmh ENE 1.8 mph2.9 kmh 30.49 in1032.5 mb 0.00 in0.0 mm 0.00 in0.0 mm 0.00 in0.0 mm
02:04 PM 36.9°F2.7°C 26.6°F-3.0°C 66% 3.4 mph SE5.5 kmh SE 4.7 mph7.6 kmh 30.48 in1032.2 mb 0.00 in0.0 mm 0.00 in0.0 mm 0.00 in0.0 mm
02:09 PM 37.4°F3.0°C 27.1°F-2.7°C 66% 1.6 mph ENE2.6 kmh ENE 2.7 mph4.3 kmh 30.48 in1032.2 mb 0.00 in0.0 mm 0.00 in0.0 mm 0.00 in0.0 mm
02:14 PM 37.6°F3.1°C 27.0°F-2.8°C 65% 0.7 mph SE1.1 kmh SE 3.4 mph5.5 kmh 30.48 in1032.2 mb 0.00 in0.0 mm 0.00 in0.0 mm 0.00 in0.0 mm
02:19 PM 37.6°F3.1°C 27.0°F-2.8°C 65% 1.6 mph NNW2.6 kmh NNW 2.2 mph3.5 kmh 30.47 in1031.8 mb 0.00 in0.0 mm 0.00 in0.0 mm 0.00 in0.0 mm
02:24 PM 37.6°F3.1°C 27.0°F-2.8°C 65% 2.2 mph N3.5 kmh N 3.1 mph5.0 kmh 30.48 in1032.2 mb 0.00 in0.0 mm 0.00 in0.0 mm 0.00 in0.0 mm
02:29 PM 37.8°F3.2°C 27.0°F-2.8°C 65% 1.1 mph NW1.8 kmh NW 2.5 mph4.0 kmh 30.48 in1032.2 mb 0.00 in0.0 mm 0.00 in0.0 mm 0.00 in0.0 mm
02:34 PM 37.4°F3.0°C 26.4°F-3.1°C 64% 0.7 mph S1.1 kmh S 1.6 mph2.6 kmh 30.48 in1032.2 mb 0.00 in0.0 mm 0.00 in0.0 mm 0.00 in0.0 mm
02:39 PM 37.8°F3.2°C 26.6°F-3.0°C 64% 3.1 mph NE5.0 kmh NE 4.5 mph7.2 kmh 30.47 in1031.8 mb 0.00 in0.0 mm 0.00 in0.0 mm 0.00 in0.0 mm
02:44 PM 38.1°F3.4°C 26.6°F-3.0°C 63% 1.8 mph NW2.9 kmh NW 2.7 mph4.3 kmh 30.47 in1031.8 mb 0.00 in0.0 mm 0.00 in0.0 mm 0.00 in0.0 mm
02:49 PM 38.1°F3.4°C 26.6°F-3.0°C 63% 1.3 mph S2.1 kmh S 2.2 mph3.5 kmh 30.46 in1031.5 mb 0.00 in0.0 mm 0.00 in0.0 mm 0.00 in0.0 mm
02:54 PM 38.1°F3.4°C 26.6°F-3.0°C 63% 3.1 mph NNE5.0 kmh NNE 3.8 mph6.1 kmh 30.46 in1031.5 mb 0.00 in0.0 mm 0.00 in0.0 mm 0.00 in0.0 mm
02:59 PM 38.1°F3.4°C 25.9°F-3.4°C 61% 1.1 mph N1.8 kmh N 1.8 mph2.9 kmh 30.46 in1031.5 mb 0.00 in0.0 mm 0.00 in0.0 mm 0.00 in0.0 mm
03:04 PM 38.3°F3.5°C 26.1°F-3.3°C 61% 1.6 mph NNE2.6 kmh NNE 2.9 mph4.7 kmh 30.47 in1031.8 mb 0.00 in0.0 mm 0.00 in0.0 mm 0.00 in0.0 mm
03:09 PM 38.5°F3.6°C 26.2°F-3.2°C 61% 1.1 mph N1.8 kmh N 2.7 mph4.3 kmh 30.47 in1031.8 mb 0.00 in0.0 mm 0.00 in0.0 mm 0.00 in0.0 mm
03:14 PM 38.5°F3.6°C 26.2°F-3.2°C 61% 1.1 mph NW1.8 kmh NW 2.2 mph3.5 kmh 30.46 in1031.5 mb 0.00 in0.0 mm 0.00 in0.0 mm 0.00 in0.0 mm
03:19 PM 38.5°F3.6°C 26.2°F-3.2°C 61% 1.3 mph N2.1 kmh N 1.8 mph2.9 kmh 30.46 in1031.5 mb 0.00 in0.0 mm 0.00 in0.0 mm 0.00 in0.0 mm
03:24 PM 38.5°F3.6°C 26.2°F-3.2°C 61% 2.0 mph SSW3.2 kmh SSW 3.8 mph6.1 kmh 30.46 in1031.5 mb 0.00 in0.0 mm 0.00 in0.0 mm 0.00 in0.0 mm
03:29 PM 38.7°F3.7°C 26.4°F-3.1°C 61% 2.5 mph SE4.0 kmh SE 3.8 mph6.1 kmh 30.46 in1031.5 mb 0.00 in0.0 mm 0.00 in0.0 mm 0.00 in0.0 mm
03:34 PM 39.0°F3.9°C 26.8°F-2.9°C 61% 1.6 mph NE2.6 kmh NE 2.9 mph4.7 kmh 30.46 in1031.5 mb 0.00 in0.0 mm 0.00 in0.0 mm 0.00 in0.0 mm
03:39 PM 39.0°F3.9°C 27.5°F-2.5°C 63% 2.9 mph N4.7 kmh N 3.8 mph6.1 kmh 30.46 in1031.5 mb 0.00 in0.0 mm 0.00 in0.0 mm 0.00 in0.0 mm
03:44 PM 38.3°F3.5°C 27.9°F-2.3°C 66% 2.5 mph N4.0 kmh N 3.6 mph5.8 kmh 30.46 in1031.5 mb 0.00 in0.0 mm 0.00 in0.0 mm 0.00 in0.0 mm
03:49 PM 38.1°F3.4°C 28.6°F-1.9°C 68% 4.0 mph N6.4 kmh N 5.6 mph9.0 kmh 30.46 in1031.5 mb 0.00 in0.0 mm 0.00 in0.0 mm 0.00 in0.0 mm
03:54 PM 37.9°F3.3°C 27.7°F-2.4°C 66% 4.7 mph N7.6 kmh N 5.6 mph9.0 kmh 30.46 in1031.5 mb 0.00 in0.0 mm 0.00 in0.0 mm 0.00 in0.0 mm
03:59 PM 37.9°F3.3°C 28.4°F-2.0°C 68% 2.7 mph N4.3 kmh N 5.6 mph9.0 kmh 30.46 in1031.5 mb 0.00 in0.0 mm 0.00 in0.0 mm 0.00 in0.0 mm
04:04 PM 37.9°F3.3°C 28.4°F-2.0°C 68% 3.1 mph N5.0 kmh N 3.8 mph6.1 kmh 30.46 in1031.5 mb 0.00 in0.0 mm 0.00 in0.0 mm 0.00 in0.0 mm
04:09 PM 37.4°F3.0°C 27.9°F-2.3°C 68% 4.7 mph NNW7.6 kmh NNW 6.7 mph10.8 kmh 30.47 in1031.8 mb 0.00 in0.0 mm 0.00 in0.0 mm 0.00 in0.0 mm
04:14 PM 37.4°F3.0°C 27.9°F-2.3°C 68% 3.4 mph N5.5 kmh N 4.7 mph7.6 kmh 30.47 in1031.8 mb 0.00 in0.0 mm 0.00 in0.0 mm 0.00 in0.0 mm
04:19 PM 37.6°F3.1°C 27.3°F-2.6°C 66% 3.4 mph N5.5 kmh N 5.6 mph9.0 kmh 30.47 in1031.8 mb 0.00 in0.0 mm 0.00 in0.0 mm 0.00 in0.0 mm
04:24 PM 37.6°F3.1°C 28.0°F-2.2°C 68% 3.1 mph N5.0 kmh N 4.9 mph7.9 kmh 30.47 in1031.8 mb 0.00 in0.0 mm 0.00 in0.0 mm 0.00 in0.0 mm
04:29 PM 37.4°F3.0°C 27.9°F-2.3°C 68% 2.7 mph N4.3 kmh N 5.6 mph9.0 kmh 30.47 in1031.8 mb 0.00 in0.0 mm 0.00 in0.0 mm 0.00 in0.0 mm
04:34 PM 37.4°F3.0°C 27.1°F-2.7°C 66% 3.8 mph N6.1 kmh N 4.9 mph7.9 kmh 30.46 in1031.5 mb 0.00 in0.0 mm 0.00 in0.0 mm 0.00 in0.0 mm
04:39 PM 37.2°F2.9°C 27.7°F-2.4°C 68% 2.5 mph N4.0 kmh N 4.7 mph7.6 kmh 30.47 in1031.8 mb 0.00 in0.0 mm 0.00 in0.0 mm 0.00 in0.0 mm
04:44 PM 37.0°F2.8°C 27.5°F-2.5°C 68% 3.6 mph N5.8 kmh N 4.5 mph7.2 kmh 30.47 in1031.8 mb 0.00 in0.0 mm 0.00 in0.0 mm 0.00 in0.0 mm
04:49 PM 37.2°F2.9°C 27.7°F-2.4°C 68% 2.7 mph NNW4.3 kmh NNW 3.8 mph6.1 kmh 30.46 in1031.5 mb 0.00 in0.0 mm 0.00 in0.0 mm 0.00 in0.0 mm
04:54 PM 37.2°F2.9°C 27.7°F-2.4°C 68% 1.3 mph NE2.1 kmh NE 2.2 mph3.5 kmh 30.46 in1031.5 mb 0.00 in0.0 mm 0.00 in0.0 mm 0.00 in0.0 mm
04:59 PM 37.4°F3.0°C 27.9°F-2.3°C 68% 2.0 mph N3.2 kmh N 2.9 mph4.7 kmh 30.46 in1031.5 mb 0.00 in0.0 mm 0.00 in0.0 mm 0.00 in0.0 mm
05:04 PM 37.8°F3.2°C 28.2°F-2.1°C 68% 2.7 mph NNE4.3 kmh NNE 3.1 mph5.0 kmh 30.46 in1031.5 mb 0.00 in0.0 mm 0.00 in0.0 mm 0.00 in0.0 mm
05:09 PM 37.6°F3.1°C 28.0°F-2.2°C 68% 3.4 mph N5.5 kmh N 4.0 mph6.4 kmh 30.46 in1031.5 mb 0.00 in0.0 mm 0.00 in0.0 mm 0.00 in0.0 mm
05:14 PM 37.4°F3.0°C 27.9°F-2.3°C 68% 3.4 mph N5.5 kmh N 3.8 mph6.1 kmh 30.47 in1031.8 mb 0.00 in0.0 mm 0.00 in0.0 mm 0.00 in0.0 mm
05:19 PM 37.2°F2.9°C 27.7°F-2.4°C 68% 2.0 mph N3.2 kmh N 4.7 mph7.6 kmh 30.46 in1031.5 mb 0.00 in0.0 mm 0.00 in0.0 mm 0.00 in0.0 mm
05:24 PM 37.0°F2.8°C 27.5°F-2.5°C 68% 3.4 mph NE5.5 kmh NE 5.6 mph9.0 kmh 30.47 in1031.8 mb 0.00 in0.0 mm 0.00 in0.0 mm 0.00 in0.0 mm
05:29 PM 37.0°F2.8°C 27.5°F-2.5°C 68% 2.2 mph N3.5 kmh N 3.6 mph5.8 kmh 30.47 in1031.8 mb 0.00 in0.0 mm 0.00 in0.0 mm 0.00 in0.0 mm
05:34 PM 36.9°F2.7°C 27.3°F-2.6°C 68% 2.2 mph N3.5 kmh N 3.1 mph5.0 kmh 30.47 in1031.8 mb 0.00 in0.0 mm 0.00 in0.0 mm 0.00 in0.0 mm
05:39 PM 36.7°F2.6°C 27.1°F-2.7°C 68% 1.6 mph NE2.6 kmh NE 2.0 mph3.2 kmh 30.46 in1031.5 mb 0.00 in0.0 mm 0.00 in0.0 mm 0.00 in0.0 mm
05:44 PM 36.9°F2.7°C 27.3°F-2.6°C 68% 2.5 mph NE4.0 kmh NE 4.0 mph6.4 kmh 30.45 in1031.2 mb 0.00 in0.0 mm 0.00 in0.0 mm 0.00 in0.0 mm
05:49 PM 37.0°F2.8°C 27.5°F-2.5°C 68% 0.7 mph NE1.1 kmh NE 1.6 mph2.6 kmh 30.45 in1031.2 mb 0.00 in0.0 mm 0.00 in0.0 mm 0.00 in0.0 mm
05:54 PM 37.0°F2.8°C 27.5°F-2.5°C 68% 0.9 mph ENE1.4 kmh ENE 2.0 mph3.2 kmh 30.45 in1031.2 mb 0.00 in0.0 mm 0.00 in0.0 mm 0.00 in0.0 mm
05:59 PM 36.9°F2.7°C 27.3°F-2.6°C 68% 0.4 mph N0.6 kmh N 1.8 mph2.9 kmh 30.45 in1031.2 mb 0.00 in0.0 mm 0.00 in0.0 mm 0.00 in0.0 mm
06:04 PM 36.9°F2.7°C 27.3°F-2.6°C 68% 2.5 mph N4.0 kmh N 3.8 mph6.1 kmh 30.45 in1031.2 mb 0.00 in0.0 mm 0.00 in0.0 mm 0.00 in0.0 mm
06:09 PM 36.7°F2.6°C 27.1°F-2.7°C 68% 1.3 mph NE2.1 kmh NE 2.2 mph3.5 kmh 30.45 in1031.2 mb 0.00 in0.0 mm 0.00 in0.0 mm 0.00 in0.0 mm
06:14 PM 36.5°F2.5°C 27.0°F-2.8°C 68% 1.3 mph NE2.1 kmh NE 3.6 mph5.8 kmh 30.45 in1031.2 mb 0.00 in0.0 mm 0.00 in0.0 mm 0.00 in0.0 mm
06:19 PM 36.5°F2.5°C 27.0°F-2.8°C 68% 1.8 mph NE2.9 kmh NE 2.7 mph4.3 kmh 30.44 in1030.8 mb 0.00 in0.0 mm 0.00 in0.0 mm 0.00 in0.0 mm
06:24 PM 36.5°F2.5°C 27.0°F-2.8°C 68% 0.7 mph SE1.1 kmh SE 1.8 mph2.9 kmh 30.44 in1030.8 mb 0.00 in0.0 mm 0.00 in0.0 mm 0.00 in0.0 mm
06:29 PM 36.5°F2.5°C 27.0°F-2.8°C 68% 0.7 mph NE1.1 kmh NE 1.8 mph2.9 kmh 30.44 in1030.8 mb 0.00 in0.0 mm 0.00 in0.0 mm 0.00 in0.0 mm
06:34 PM 36.3°F2.4°C 26.8°F-2.9°C 68% 1.8 mph NE2.9 kmh NE 1.8 mph2.9 kmh 30.44 in1030.8 mb 0.00 in0.0 mm 0.00 in0.0 mm 0.00 in0.0 mm
06:39 PM 36.5°F2.5°C 27.0°F-2.8°C 68% 1.1 mph N1.8 kmh N 1.6 mph2.6 kmh 30.44 in1030.8 mb 0.00 in0.0 mm 0.00 in0.0 mm 0.00 in0.0 mm
06:44 PM 36.3°F2.4°C 26.8°F-2.9°C 68% 0.9 mph NE1.4 kmh NE 1.8 mph2.9 kmh 30.44 in1030.8 mb 0.00 in0.0 mm 0.00 in0.0 mm 0.00 in0.0 mm
06:49 PM 36.1°F2.3°C 27.0°F-2.8°C 69% 0.2 mph E0.3 kmh E 1.1 mph1.8 kmh 30.44 in1030.8 mb 0.00 in0.0 mm 0.00 in0.0 mm 0.00 in0.0 mm
06:54 PM 35.8°F2.1°C 26.2°F-3.2°C 68% 2.0 mph NE3.2 kmh NE 2.7 mph4.3 kmh 30.44 in1030.8 mb 0.00 in0.0 mm 0.00 in0.0 mm 0.00 in0.0 mm
06:59 PM 35.8°F2.1°C 26.6°F-3.0°C 69% 1.1 mph NE1.8 kmh NE 1.8 mph2.9 kmh 30.44 in1030.8 mb 0.00 in0.0 mm 0.00 in0.0 mm 0.00 in0.0 mm
07:04 PM 35.6°F2.0°C 26.4°F-3.1°C 69% 0.4 mph NE0.6 kmh NE 1.3 mph2.1 kmh 30.44 in1030.8 mb 0.00 in0.0 mm 0.00 in0.0 mm 0.00 in0.0 mm
07:09 PM 35.6°F2.0°C 26.1°F-3.3°C 68% 2.2 mph NNE3.5 kmh NNE 2.9 mph4.7 kmh 30.44 in1030.8 mb 0.00 in0.0 mm 0.00 in0.0 mm 0.00 in0.0 mm
07:14 PM 35.4°F1.9°C 26.2°F-3.2°C 69% 0.2 mph NE0.3 kmh NE 1.3 mph2.1 kmh 30.44 in1030.8 mb 0.00 in0.0 mm 0.00 in0.0 mm 0.00 in0.0 mm
07:19 PM 35.2°F1.8°C 26.1°F-3.3°C 69% 2.2 mph NE3.5 kmh NE 2.9 mph4.7 kmh 30.44 in1030.8 mb 0.00 in0.0 mm 0.00 in0.0 mm 0.00 in0.0 mm
07:24 PM 35.1°F1.7°C 26.2°F-3.2°C 70% 0.7 mph E1.1 kmh E 1.3 mph2.1 kmh 30.45 in1031.2 mb 0.00 in0.0 mm 0.00 in0.0 mm 0.00 in0.0 mm
07:29 PM 34.9°F1.6°C 26.1°F-3.3°C 70% Calm Calm 0.7 mph1.1 kmh 30.45 in1031.2 mb 0.00 in0.0 mm 0.00 in0.0 mm 0.00 in0.0 mm
07:34 PM 34.7°F1.5°C 26.2°F-3.2°C 71% Calm Calm -- 30.45 in1031.2 mb 0.00 in0.0 mm 0.00 in0.0 mm 0.00 in0.0 mm
07:39 PM 34.3°F1.3°C 25.9°F-3.4°C 71% 0.2 mph SE0.3 kmh SE 1.3 mph2.1 kmh 30.45 in1031.2 mb 0.00 in0.0 mm 0.00 in0.0 mm 0.00 in0.0 mm
07:44 PM 34.0°F1.1°C 26.2°F-3.2°C 73% Calm Calm -- 30.46 in1031.5 mb 0.00 in0.0 mm 0.00 in0.0 mm 0.00 in0.0 mm
07:49 PM 34.0°F1.1°C 26.6°F-3.0°C 74% Calm Calm -- 30.46 in1031.5 mb 0.00 in0.0 mm 0.00 in0.0 mm 0.00 in0.0 mm
07:54 PM 34.0°F1.1°C 26.6°F-3.0°C 74% Calm Calm 0.7 mph1.1 kmh 30.46 in1031.5 mb 0.00 in0.0 mm 0.00 in0.0 mm 0.00 in0.0 mm
07:59 PM 33.8°F1.0°C 26.4°F-3.1°C 74% Calm Calm -- 30.47 in1031.8 mb 0.00 in0.0 mm 0.00 in0.0 mm 0.00 in0.0 mm
08:04 PM 33.8°F1.0°C 26.4°F-3.1°C 74% Calm Calm 0.7 mph1.1 kmh 30.46 in1031.5 mb 0.00 in0.0 mm 0.00 in0.0 mm 0.00 in0.0 mm
08:09 PM 33.6°F0.9°C 26.2°F-3.2°C 74% 0.7 mph SSE1.1 kmh SSE 0.9 mph1.4 kmh 30.47 in1031.8 mb 0.00 in0.0 mm 0.00 in0.0 mm 0.00 in0.0 mm
08:14 PM 33.6°F0.9°C 26.6°F-3.0°C 75% Calm Calm -- 30.46 in1031.5 mb 0.00 in0.0 mm 0.00 in0.0 mm 0.00 in0.0 mm
08:19 PM 33.6°F0.9°C 26.6°F-3.0°C 75% Calm Calm -- 30.46 in1031.5 mb 0.00 in0.0 mm 0.00 in0.0 mm 0.00 in0.0 mm
08:24 PM 33.6°F0.9°C 26.6°F-3.0°C 75% Calm Calm -- 30.46 in1031.5 mb 0.00 in0.0 mm 0.00 in0.0 mm 0.00 in0.0 mm
08:29 PM 33.3°F0.7°C 26.2°F-3.2°C 75% Calm Calm -- 30.46 in1031.5 mb 0.00 in0.0 mm 0.00 in0.0 mm 0.00 in0.0 mm
08:34 PM 32.5°F0.3°C 25.5°F-3.6°C 75% Calm Calm -- 30.46 in1031.5 mb 0.00 in0.0 mm 0.00 in0.0 mm 0.00 in0.0 mm
08:39 PM 32.9°F0.5°C 26.2°F-3.2°C 76% Calm Calm -- 30.47 in1031.8 mb 0.00 in0.0 mm 0.00 in0.0 mm 0.00 in0.0 mm
08:44 PM 33.1°F0.6°C 26.4°F-3.1°C 76% 1.1 mph S1.8 kmh S 1.1 mph1.8 kmh 30.46 in1031.5 mb 0.00 in0.0 mm 0.00 in0.0 mm 0.00 in0.0 mm
08:49 PM 33.1°F0.6°C 26.1°F-3.3°C 75% 0.9 mph SSE1.4 kmh SSE 1.1 mph1.8 kmh 30.46 in1031.5 mb 0.00 in0.0 mm 0.00 in0.0 mm 0.00 in0.0 mm
08:54 PM 32.9°F0.5°C 26.2°F-3.2°C 76% Calm Calm -- 30.46 in1031.5 mb 0.00 in0.0 mm 0.00 in0.0 mm 0.00 in0.0 mm
08:59 PM 32.9°F0.5°C 26.2°F-3.2°C 76% Calm Calm -- 30.47 in1031.8 mb 0.00 in0.0 mm 0.00 in0.0 mm 0.00 in0.0 mm
09:04 PM 32.9°F0.5°C 26.2°F-3.2°C 76% Calm Calm -- 30.46 in1031.5 mb 0.00 in0.0 mm 0.00 in0.0 mm 0.00 in0.0 mm
09:09 PM 32.5°F0.3°C 25.9°F-3.4°C 76% Calm Calm -- 30.47 in1031.8 mb 0.00 in0.0 mm 0.00 in0.0 mm 0.00 in0.0 mm
09:14 PM 32.5°F0.3°C 25.9°F-3.4°C 76% 0.2 mph SSE0.3 kmh SSE 1.1 mph1.8 kmh 30.48 in1032.2 mb 0.00 in0.0 mm 0.00 in0.0 mm 0.00 in0.0 mm
09:19 PM 32.7°F0.4°C 26.1°F-3.3°C 76% 0.4 mph SSE0.6 kmh SSE 0.9 mph1.4 kmh 30.47 in1031.8 mb 0.00 in0.0 mm 0.00 in0.0 mm 0.00 in0.0 mm
09:24 PM 32.7°F0.4°C 26.1°F-3.3°C 76% 0.7 mph SSE1.1 kmh SSE 1.1 mph1.8 kmh 30.47 in1031.8 mb 0.00 in0.0 mm 0.00 in0.0 mm 0.00 in0.0 mm
09:29 PM 32.7°F0.4°C 26.1°F-3.3°C 76% 0.2 mph S0.3 kmh S 0.9 mph1.4 kmh 30.47 in1031.8 mb 0.00 in0.0 mm 0.00 in0.0 mm 0.00 in0.0 mm
09:34 PM 32.5°F0.3°C 25.9°F-3.4°C 76% 1.1 mph S1.8 kmh S 1.1 mph1.8 kmh 30.47 in1031.8 mb 0.00 in0.0 mm 0.00 in0.0 mm 0.00 in0.0 mm
09:39 PM 32.7°F0.4°C 26.6°F-3.0°C 78% Calm Calm -- 30.47 in1031.8 mb 0.00 in0.0 mm 0.00 in0.0 mm 0.00 in0.0 mm
09:44 PM 32.7°F0.4°C 26.6°F-3.0°C 78% 0.2 mph SSE0.3 kmh SSE 0.9 mph1.4 kmh 30.47 in1031.8 mb 0.00 in0.0 mm 0.00 in0.0 mm 0.00 in0.0 mm
09:49 PM 32.7°F0.4°C 26.6°F-3.0°C 78% Calm Calm -- 30.46 in1031.5 mb 0.00 in0.0 mm 0.00 in0.0 mm 0.00 in0.0 mm
09:54 PM 32.5°F0.3°C 26.4°F-3.1°C 78% 0.4 mph NW0.6 kmh NW 0.9 mph1.4 kmh 30.47 in1031.8 mb 0.00 in0.0 mm 0.00 in0.0 mm 0.00 in0.0 mm
09:59 PM 32.4°F0.2°C 26.2°F-3.2°C 78% Calm Calm -- 30.47 in1031.8 mb 0.00 in0.0 mm 0.00 in0.0 mm 0.00 in0.0 mm
10:04 PM 32.2°F0.1°C 26.1°F-3.3°C 78% Calm Calm -- 30.48 in1032.2 mb 0.00 in0.0 mm 0.00 in0.0 mm 0.00 in0.0 mm
10:09 PM 32.2°F0.1°C 26.1°F-3.3°C 78% Calm Calm -- 30.48 in1032.2 mb 0.00 in0.0 mm 0.00 in0.0 mm 0.00 in0.0 mm
10:14 PM 32.4°F0.2°C 26.2°F-3.2°C 78% 0.4 mph NW0.6 kmh NW 0.9 mph1.4 kmh 30.48 in1032.2 mb 0.00 in0.0 mm 0.00 in0.0 mm 0.00 in0.0 mm
10:19 PM 32.4°F0.2°C 26.2°F-3.2°C 78% Calm Calm -- 30.48 in1032.2 mb 0.00 in0.0 mm 0.00 in0.0 mm 0.00 in0.0 mm
10:24 PM 31.6°F-0.2°C 25.5°F-3.6°C 78% Calm Calm -- 30.48 in1032.2 mb 0.00 in0.0 mm 0.00 in0.0 mm 0.00 in0.0 mm
10:29 PM 31.8°F-0.1°C 26.1°F-3.3°C 79% Calm Calm 0.9 mph1.4 kmh 30.48 in1032.2 mb 0.00 in0.0 mm 0.00 in0.0 mm 0.00 in0.0 mm
10:34 PM 31.5°F-0.3°C 25.7°F-3.5°C 79% Calm Calm -- 30.49 in1032.5 mb 0.00 in0.0 mm 0.00 in0.0 mm 0.00 in0.0 mm
10:39 PM 31.5°F-0.3°C 25.7°F-3.5°C 79% Calm Calm -- 30.48 in1032.2 mb 0.00 in0.0 mm 0.00 in0.0 mm 0.00 in0.0 mm
10:44 PM 31.8°F-0.1°C 26.1°F-3.3°C 79% 0.4 mph SSE0.6 kmh SSE 0.7 mph1.1 kmh 30.48 in1032.2 mb 0.00 in0.0 mm 0.00 in0.0 mm 0.00 in0.0 mm
10:49 PM 32.0°F0.0°C 25.9°F-3.4°C 78% 0.9 mph S1.4 kmh S 1.3 mph2.1 kmh 30.48 in1032.2 mb 0.00 in0.0 mm 0.00 in0.0 mm 0.00 in0.0 mm
10:54 PM 31.8°F-0.1°C 25.7°F-3.5°C 78% 0.9 mph S1.4 kmh S 1.1 mph1.8 kmh 30.49 in1032.5 mb 0.00 in0.0 mm 0.00 in0.0 mm 0.00 in0.0 mm
10:59 PM 31.8°F-0.1°C 25.7°F-3.5°C 78% 0.7 mph S1.1 kmh S 1.1 mph1.8 kmh 30.48 in1032.2 mb 0.00 in0.0 mm 0.00 in0.0 mm 0.00 in0.0 mm
11:04 PM 31.8°F-0.1°C 25.7°F-3.5°C 78% 0.4 mph SE0.6 kmh SE 1.1 mph1.8 kmh 30.48 in1032.2 mb 0.00 in0.0 mm 0.00 in0.0 mm 0.00 in0.0 mm
11:09 PM 31.8°F-0.1°C 25.7°F-3.5°C 78% Calm Calm -- 30.48 in1032.2 mb 0.00 in0.0 mm 0.00 in0.0 mm 0.00 in0.0 mm
11:14 PM 32.0°F0.0°C 25.9°F-3.4°C 78% Calm Calm -- 30.48 in1032.2 mb 0.00 in0.0 mm 0.00 in0.0 mm 0.00 in0.0 mm
11:19 PM 32.0°F0.0°C 25.9°F-3.4°C 78% 0.9 mph SE1.4 kmh SE 2.7 mph4.3 kmh 30.48 in1032.2 mb 0.00 in0.0 mm 0.00 in0.0 mm 0.00 in0.0 mm
11:24 PM 32.0°F0.0°C 26.2°F-3.2°C 79% Calm Calm -- 30.48 in1032.2 mb 0.00 in0.0 mm 0.00 in0.0 mm 0.00 in0.0 mm
11:29 PM 32.0°F0.0°C 25.9°F-3.4°C 78% 1.1 mph E1.8 kmh E 2.7 mph4.3 kmh 30.48 in1032.2 mb 0.00 in0.0 mm 0.00 in0.0 mm 0.00 in0.0 mm
11:34 PM 31.8°F-0.1°C 25.7°F-3.5°C 78% 0.9 mph S1.4 kmh S 4.0 mph6.4 kmh 30.48 in1032.2 mb 0.00 in0.0 mm 0.00 in0.0 mm 0.00 in0.0 mm
11:39 PM 31.8°F-0.1°C 25.7°F-3.5°C 78% 1.3 mph S2.1 kmh S 2.7 mph4.3 kmh 30.48 in1032.2 mb 0.00 in0.0 mm 0.00 in0.0 mm 0.00 in0.0 mm
11:44 PM 31.8°F-0.1°C 25.7°F-3.5°C 78% 0.7 mph S1.1 kmh S 2.5 mph4.0 kmh 30.48 in1032.2 mb 0.00 in0.0 mm 0.00 in0.0 mm 0.00 in0.0 mm
11:49 PM 31.6°F-0.2°C 25.9°F-3.4°C 79% 0.7 mph SE1.1 kmh SE 1.1 mph1.8 kmh 30.48 in1032.2 mb 0.00 in0.0 mm 0.00 in0.0 mm 0.00 in0.0 mm
11:54 PM 31.6°F-0.2°C 25.9°F-3.4°C 79% Calm Calm -- 30.48 in1032.2 mb 0.00 in0.0 mm 0.00 in0.0 mm 0.00 in0.0 mm
11:59 PM 31.6°F-0.2°C 25.9°F-3.4°C 79% Calm Calm -- 30.48 in1032.2 mb 0.00 in0.0 mm 0.00 in0.0 mm 0.00 in0.0 mm